Winona

*Note: All times are displayed in the local standard time of the station location.
**Rain - Equipment is designed to accurately record liquid precipitation; under conditions when precipitation is not in liquid form, the data displayed may not properly reflect rainfall values.

Date Max Temp
(°C)
Min Temp
(°C)
Avg Temp
(°C)
Rain (mm) Avg RH (%) Solar Rad (kJ/m2)
Sun, Dec 10, 2017 -1.2 -3.0 -2.2 0.0 92.4 1596.4
Sat, Dec 09, 2017 2.3 -3.1 -0.3 0.0 80.7 3660.6
Fri, Dec 08, 2017 0.3 -4.3 -1.6 0.0 78.5 2471.4
Thu, Dec 07, 2017 1.5 -3.4 -0.9 0.0 83.5 3839.7
Wed, Dec 06, 2017 4.1 -1.9 1.2 0.0 71.0 5454.9
Tue, Dec 05, 2017 11.6 0.5 7.6 3.4 89.3 1302.8
Mon, Dec 04, 2017 11.2 -3.3 4.5 1.4 91.2 3162.6
DateTime Avg Temp (°C) Rain (mm) RH (%) Solar Rad (kJ/m2)
Mon, Dec 11, 2017 01:00 -2.2 0.0 97.8 0.0
Mon, Dec 11, 2017 00:00 -2.1 0.0 94.0 0.0
Sun, Dec 10, 2017 23:00 -2.6 0.0 95.0 0.0
Sun, Dec 10, 2017 22:00 -2.6 0.0 93.8 0.0
Sun, Dec 10, 2017 21:00 -2.6 0.0 93.0 0.0
Sun, Dec 10, 2017 20:00 -2.6 0.0 92.3 0.0
Sun, Dec 10, 2017 19:00 -2.6 0.0 94.8 0.0
Sun, Dec 10, 2017 18:00 -2.3 0.0 94.5 0.0
Sun, Dec 10, 2017 17:00 -1.5 0.0 85.8 9.6
Sun, Dec 10, 2017 16:00 -1.3 0.0 88.0 75.3
Sun, Dec 10, 2017 15:00 -1.3 0.0 87.3 182.9
Sun, Dec 10, 2017 14:00 -1.3 0.0 87.0 214.8
Sun, Dec 10, 2017 13:00 -1.4 0.0 89.8 310.8
Sun, Dec 10, 2017 12:00 -1.7 0.0 89.8 308.6
Sun, Dec 10, 2017 11:00 -1.8 0.0 84.8 287.0
Sun, Dec 10, 2017 10:00 -2.4 0.0 87.3 136.6
Sun, Dec 10, 2017 09:00 -2.8 0.0 88.0 67.7
Sun, Dec 10, 2017 08:00 -2.9 0.0 86.8 3.1
Sun, Dec 10, 2017 07:00 -2.6 0.0 92.5 0.0
Sun, Dec 10, 2017 06:00 -2.4 0.0 95.0 0.0
Sun, Dec 10, 2017 05:00 -2.6 0.0 99.8 0.0
Sun, Dec 10, 2017 04:00 -2.2 0.0 100.0 0.0
Sun, Dec 10, 2017 03:00 -2.3 0.0 100.0 0.0
Sun, Dec 10, 2017 02:00 -2.5 0.0 100.0 0.0
Sun, Dec 10, 2017 01:00 -2.5 0.0 100.0 0.0
Sun, Dec 10, 2017 00:00 -3.0 0.0 100.0 0.0
Sat, Dec 09, 2017 23:00 -2.8 0.0 100.0 0.0
Sat, Dec 09, 2017 22:00 -2.5 0.0 100.0 0.0
Sat, Dec 09, 2017 21:00 -2.0 0.0 100.0 0.0
Sat, Dec 09, 2017 20:00 -1.6 0.0 99.8 0.0
Sat, Dec 09, 2017 19:00 -0.4 0.0 86.8 0.0
Sat, Dec 09, 2017 18:00 0.1 0.0 78.3 0.0
Sat, Dec 09, 2017 17:00 0.2 0.0 76.0 25.6
Sat, Dec 09, 2017 16:00 1.4 0.0 70.0 198.2
Sat, Dec 09, 2017 15:00 2.0 0.0 67.8 468.7
Sat, Dec 09, 2017 14:00 2.0 0.0 66.5 662.2
Sat, Dec 09, 2017 13:00 1.6 0.0 66.3 697.9
Sat, Dec 09, 2017 12:00 1.3 0.0 68.5 589.4
Sat, Dec 09, 2017 11:00 1.2 0.0 72.0 463.9
Sat, Dec 09, 2017 10:00 0.7 0.0 81.5 347.6
Sat, Dec 09, 2017 09:00 0.0 0.0 89.5 199.7
Sat, Dec 09, 2017 08:00 -0.1 0.0 91.3 7.4
Sat, Dec 09, 2017 07:00 -0.4 0.0 82.3 0.0
Sat, Dec 09, 2017 06:00 -0.8 0.0 73.8 0.0
Sat, Dec 09, 2017 05:00 -1.0 0.0 74.5 0.0
Sat, Dec 09, 2017 04:00 -0.9 0.0 73.5 0.0
Sat, Dec 09, 2017 03:00 -1.0 0.0 73.3 0.0
Sat, Dec 09, 2017 02:00 -0.7 0.0 72.5 0.0


asterix Register now to access more data! asterix